HESH/SSH METAR and TAF weather

Enter ICAO airport designator
Station Type Date Time Source
HESH METAR 2019/12/11 17:00 UTC NOAA

HESH 111700Z VRB01KT CAVOK 21/13 Q1013 NOSIG


Station Type Date Time Source
HESH Decoded METAR 2019/12/11 17:00 UTC NOAA

Sharm El Sheikhintl, Egypt (HESH) 27-58N 034-23E
Dec 11, 2019 - 12:00 PM EST / 2019.12.11 1700 UTC
Wind: Variable at 1 MPH (1 KT):0
Visibility: greater than 7 mile(s):0
Temperature: 69 F (21 C)
Dew Point: 55 F (13 C)
Relative Humidity: 60%
Pressure (altimeter): 29.91 in. Hg (1013 hPa)
ob: HESH 111700Z VRB01KT CAVOK 21/13 Q1013 NOSIG
cycle: 17

Station Type Date Time Source
HESH TAF 2019/12/11 18:51 UTC NOAA

TAF TAF HESH 111700Z 1118/1224 16007KT CAVOK
BECMG 1209/1212 24015G25KT 6000 NSC

Example: see airport list